createdAt,value
2022-10-17T00:00:22.768Z,101680.53
2022-10-17T00:01:31.978Z,101675.23
2022-10-17T00:03:55.603Z,101670.56
2022-10-17T00:06:22.087Z,101674.03
2022-10-17T00:08:48.005Z,101669.42
2022-10-17T00:11:23.344Z,101671.52
2022-10-17T00:13:52.023Z,101674.61
2022-10-17T00:15:05.659Z,101679.36
2022-10-17T00:16:24.097Z,101676.84
2022-10-17T00:18:50.013Z,101683.94
2022-10-17T00:21:18.007Z,101669.00
2022-10-17T00:23:43.484Z,101679.77
2022-10-17T00:26:09.778Z,101675.30
2022-10-17T00:27:20.381Z,101692.25
2022-10-17T00:28:30.011Z,101684.06
2022-10-17T00:32:13.420Z,101688.00
2022-10-17T00:34:39.155Z,101686.38
2022-10-17T00:35:48.344Z,101682.98
2022-10-17T00:36:58.320Z,101686.65
2022-10-17T00:38:07.506Z,101699.39
2022-10-17T00:39:18.002Z,101689.80
2022-10-17T00:40:28.236Z,101690.70
2022-10-17T00:42:53.578Z,101681.44
2022-10-17T00:45:30.393Z,101679.55
2022-10-17T00:48:03.310Z,101684.84
2022-10-17T00:49:12.474Z,101684.42
2022-10-17T00:51:55.647Z,101693.11
2022-10-17T00:54:28.537Z,101681.63
2022-10-17T00:57:07.313Z,101690.79
2022-10-17T00:58:18.556Z,101691.05
2022-10-17T01:01:08.216Z,101679.64
2022-10-17T01:02:20.864Z,101685.27
2022-10-17T01:03:30.083Z,101682.69
2022-10-17T01:05:59.108Z,101681.78
2022-10-17T01:07:09.461Z,101675.75
2022-10-17T01:08:18.384Z,101672.96
2022-10-17T01:10:49.686Z,101680.55
2022-10-17T01:12:21.785Z,101687.16
2022-10-17T01:15:29.335Z,101687.16
2022-10-17T01:20:06.271Z,101681.98
2022-10-17T01:22:43.452Z,101686.45
2022-10-17T01:25:49.578Z,101680.22
2022-10-17T01:30:33.937Z,101663.80
2022-10-17T01:33:46.295Z,101661.14
2022-10-17T01:35:02.488Z,101669.27
2022-10-17T01:36:23.673Z,101669.14
2022-10-17T01:40:28.269Z,101674.82
2022-10-17T01:43:17.615Z,101659.47
2022-10-17T01:45:59.468Z,101660.05
2022-10-17T01:48:34.330Z,101657.24
2022-10-17T01:49:48.846Z,101664.48
2022-10-17T01:51:02.593Z,101668.91
2022-10-17T01:53:36.038Z,101667.73
2022-10-17T01:56:08.930Z,101665.88
2022-10-17T01:57:33.598Z,101667.96
2022-10-17T02:00:08.834Z,101666.83
2022-10-17T02:02:37.127Z,101669.50
2022-10-17T02:03:49.470Z,101679.72
2022-10-17T02:04:58.881Z,101684.37
2022-10-17T02:06:08.731Z,101676.45
2022-10-17T02:07:18.569Z,101671.86
2022-10-17T02:08:42.884Z,101673.48
2022-10-17T02:11:17.130Z,101665.11
2022-10-17T02:14:08.081Z,101664.25
2022-10-17T02:21:40.440Z,101643.31
2022-10-17T02:24:42.821Z,101638.12
2022-10-17T02:26:06.962Z,101650.04
2022-10-17T02:29:03.088Z,101648.96
2022-10-17T02:30:19.417Z,101661.66
2022-10-17T02:31:41.440Z,101665.19
2022-10-17T02:34:23.546Z,101649.73
2022-10-17T02:37:15.463Z,101650.64
2022-10-17T02:38:32.330Z,101658.00
2022-10-17T02:40:58.816Z,101653.13
2022-10-17T02:43:28.286Z,101659.41
2022-10-17T02:45:57.353Z,101662.86
2022-10-17T02:47:22.217Z,101666.65
2022-10-17T02:50:00.739Z,101658.05
2022-10-17T02:52:36.023Z,101653.63
2022-10-17T02:55:15.862Z,101657.37
2022-10-17T02:56:29.575Z,101658.59
2022-10-17T02:57:42.945Z,101668.45
2022-10-17T02:58:55.790Z,101665.78
2022-10-17T03:00:08.400Z,101672.03
2022-10-17T03:01:19.017Z,101671.22
2022-10-17T03:02:28.277Z,101665.92
2022-10-17T03:03:37.452Z,101668.67
2022-10-17T03:04:47.976Z,101677.58
2022-10-17T03:07:14.817Z,101673.79
2022-10-17T03:09:39.785Z,101677.28
2022-10-17T03:12:05.149Z,101681.75
2022-10-17T03:14:31.364Z,101681.24
2022-10-17T03:15:40.997Z,101693.92
2022-10-17T03:16:51.293Z,101684.16
2022-10-17T03:18:01.607Z,101693.89
2022-10-17T03:20:26.885Z,101692.08
2022-10-17T03:21:38.608Z,101697.86
2022-10-17T03:22:47.913Z,101695.11
2022-10-17T03:25:11.523Z,101693.89
2022-10-17T03:27:35.721Z,101693.72
2022-10-17T03:28:46.862Z,101705.45
2022-10-17T03:29:57.422Z,101708.86
2022-10-17T03:32:49.279Z,101706.59
2022-10-17T03:35:14.886Z,101710.29
2022-10-17T03:36:25.915Z,101708.73
2022-10-17T03:37:38.950Z,101719.36
2022-10-17T03:40:03.647Z,101708.23
2022-10-17T03:42:29.682Z,101721.61
2022-10-17T03:43:40.342Z,101721.13
2022-10-17T03:46:04.650Z,101723.14
2022-10-17T03:48:30.768Z,101721.42
2022-10-17T03:51:01.366Z,101723.10
2022-10-17T03:53:29.508Z,101719.53
2022-10-17T03:54:39.906Z,101728.56
2022-10-17T03:57:06.718Z,101714.89
2022-10-17T03:58:15.063Z,101723.06
2022-10-17T04:01:05.147Z,101723.59
2022-10-17T04:02:14.861Z,101720.23
2022-10-17T04:03:24.098Z,101725.56
2022-10-17T04:04:45.355Z,101714.84
2022-10-17T04:07:15.315Z,101721.78
2022-10-17T04:09:46.648Z,101722.56
2022-10-17T04:12:24.268Z,101734.91
2022-10-17T04:13:34.013Z,101736.11
2022-10-17T04:16:01.429Z,101734.01
2022-10-17T04:18:28.263Z,101725.88
2022-10-17T04:21:13.583Z,101730.17
2022-10-17T04:23:44.860Z,101732.84
2022-10-17T04:26:11.506Z,101726.64
2022-10-17T04:31:07.347Z,101710.63
2022-10-17T04:33:53.767Z,101715.06
2022-10-17T04:36:38.516Z,101711.35
2022-10-17T04:37:47.266Z,101712.22
2022-10-17T04:40:18.350Z,101709.10
2022-10-17T04:41:30.331Z,101713.44
2022-10-17T04:44:03.242Z,101713.31
2022-10-17T04:45:17.353Z,101714.60
2022-10-17T04:47:41.816Z,101713.08
2022-10-17T04:48:50.622Z,101721.53
2022-10-17T04:49:59.790Z,101735.85
2022-10-17T04:52:28.892Z,101723.18
2022-10-17T04:54:55.939Z,101730.07
2022-10-17T04:57:30.014Z,101716.44
2022-10-17T04:58:46.373Z,101714.72
2022-10-17T04:59:56.850Z,101711.52
2022-10-17T05:02:32.736Z,101696.96
2022-10-17T05:03:43.976Z,101703.52
2022-10-17T05:06:21.301Z,101699.71
2022-10-17T05:08:48.169Z,101699.30
2022-10-17T05:09:59.322Z,101707.36
2022-10-17T05:12:38.552Z,101701.98
2022-10-17T05:15:12.008Z,101699.98
2022-10-17T05:17:37.202Z,101706.78
2022-10-17T05:20:09.319Z,101714.38
2022-10-17T05:21:19.659Z,101716.93
2022-10-17T05:22:29.545Z,101717.63
2022-10-17T05:25:13.273Z,101716.46
2022-10-17T05:27:39.620Z,101717.16
2022-10-17T05:28:48.594Z,101725.39
2022-10-17T05:31:13.124Z,101722.03
2022-10-17T05:32:23.036Z,101728.23
2022-10-17T05:34:47.640Z,101726.30
2022-10-17T05:37:12.894Z,101723.80
2022-10-17T05:39:39.236Z,101713.52
2022-10-17T05:40:49.111Z,101719.56
2022-10-17T05:43:19.841Z,101717.06
2022-10-17T05:44:28.906Z,101729.30
2022-10-17T05:46:54.301Z,101721.98
2022-10-17T05:49:32.674Z,101723.60
2022-10-17T05:51:56.714Z,101715.88
2022-10-17T05:54:22.281Z,101735.37
2022-10-17T05:55:32.773Z,101730.10
2022-10-17T05:56:41.799Z,101746.11
2022-10-17T05:58:01.631Z,101745.59
2022-10-17T05:59:14.340Z,101734.27
2022-10-17T06:00:34.161Z,101735.69
2022-10-17T06:01:43.378Z,101733.98
2022-10-17T06:04:08.549Z,101732.92
2022-10-17T06:06:32.397Z,101728.27
2022-10-17T06:07:43.306Z,101738.81
2022-10-17T06:08:54.062Z,101727.18
2022-10-17T06:10:07.891Z,101732.63
2022-10-17T06:12:32.877Z,101733.97
2022-10-17T06:14:57.517Z,101730.22
2022-10-17T06:17:24.324Z,101732.08
2022-10-17T06:20:08.441Z,101738.22
2022-10-17T06:22:35.648Z,101734.64
2022-10-17T06:25:02.188Z,101745.87
2022-10-17T06:27:26.503Z,101742.50
2022-10-17T06:29:52.944Z,101750.72
2022-10-17T06:32:21.887Z,101754.02
2022-10-17T06:34:47.240Z,101765.23
2022-10-17T06:35:57.263Z,101763.70
2022-10-17T06:38:21.997Z,101756.39
2022-10-17T06:40:51.283Z,101757.77
2022-10-17T06:42:02.555Z,101758.22
2022-10-17T06:45:19.851Z,101761.12
2022-10-17T06:48:32.263Z,101764.38
2022-10-17T06:50:25.989Z,101761.23
2022-10-17T06:51:55.855Z,101764.67
2022-10-17T06:53:06.981Z,101757.31
2022-10-17T06:56:37.127Z,101750.34
2022-10-17T06:59:19.651Z,101749.33
2022-10-17T07:02:01.441Z,101749.84
2022-10-17T07:04:26.931Z,101752.09
2022-10-17T07:06:51.678Z,101755.57
2022-10-17T07:09:20.949Z,101751.08
2022-10-17T07:11:47.474Z,101751.13
2022-10-17T07:14:14.081Z,101751.00
2022-10-17T07:16:37.826Z,101741.83
2022-10-17T07:17:58.449Z,101756.52
2022-10-17T07:20:24.553Z,101746.98
2022-10-17T07:22:48.938Z,101755.06
2022-10-17T07:25:24.793Z,101753.81
2022-10-17T07:27:52.898Z,101756.66
2022-10-17T07:30:21.377Z,101768.17
2022-10-17T07:32:48.283Z,101759.58
2022-10-17T07:34:00.149Z,101766.34
2022-10-17T07:36:33.286Z,101768.16
2022-10-17T07:38:01.228Z,101766.61
2022-10-17T07:39:11.165Z,101781.68
2022-10-17T07:40:20.795Z,101762.55
2022-10-17T07:42:45.186Z,101765.28
2022-10-17T07:45:11.621Z,101761.33
2022-10-17T07:47:38.385Z,101745.77
2022-10-17T07:50:05.414Z,101741.03
2022-10-17T07:52:31.336Z,101746.98
2022-10-17T07:54:58.702Z,101761.48
2022-10-17T07:57:24.340Z,101756.83
2022-10-17T07:59:58.226Z,101746.74
2022-10-17T08:01:14.855Z,101748.95
2022-10-17T08:03:43.170Z,101740.11
2022-10-17T08:06:08.130Z,101736.44
2022-10-17T08:08:32.191Z,101746.45
2022-10-17T08:11:00.089Z,101743.41
2022-10-17T08:12:08.982Z,101752.94
2022-10-17T08:14:33.952Z,101743.20
2022-10-17T08:16:57.648Z,101739.61
2022-10-17T08:19:22.800Z,101741.11
2022-10-17T08:21:46.591Z,101737.03
2022-10-17T08:24:13.957Z,101734.70
2022-10-17T08:26:42.341Z,101727.08
2022-10-17T08:29:05.321Z,101715.94
2022-10-17T08:31:31.709Z,101731.81
2022-10-17T08:34:05.590Z,101717.25
2022-10-17T08:36:30.457Z,101720.58
2022-10-17T08:38:56.502Z,101717.80
2022-10-17T08:43:01.862Z,101716.58
2022-10-17T09:21:08.730Z,101711.38
2022-10-17T09:25:14.181Z,101708.06
2022-10-17T09:26:25.548Z,101710.70
2022-10-17T09:29:00.137Z,101701.00
2022-10-17T09:31:38.660Z,101706.31
2022-10-17T09:34:05.266Z,101711.56
2022-10-17T09:36:36.722Z,101717.86
2022-10-17T09:37:47.921Z,101720.20
2022-10-17T09:41:54.898Z,101714.69
2022-10-17T09:44:35.894Z,101704.39
2022-10-17T09:47:45.240Z,101697.08
2022-10-17T09:50:31.798Z,101699.50
2022-10-17T09:52:59.155Z,101697.21
2022-10-17T09:55:47.322Z,101700.67
2022-10-17T10:00:05.934Z,101692.12
2022-10-17T10:03:20.766Z,101695.52
2022-10-17T10:06:08.136Z,101687.66
2022-10-17T10:08:37.262Z,101683.69
2022-10-17T10:11:13.521Z,101689.80
2022-10-17T10:13:38.541Z,101683.91
2022-10-17T10:17:47.647Z,101679.00
2022-10-17T10:21:47.199Z,101676.75
2022-10-17T10:24:43.309Z,101675.80
2022-10-17T10:27:15.140Z,101664.78
2022-10-17T10:29:52.171Z,101665.67
2022-10-17T10:31:04.946Z,101663.72
2022-10-17T10:33:49.421Z,101668.28
2022-10-17T10:36:25.739Z,101672.80
2022-10-17T10:37:41.378Z,101678.59
2022-10-17T10:38:59.206Z,101673.19
2022-10-17T10:41:51.074Z,101687.33
2022-10-17T10:43:05.095Z,101682.47
2022-10-17T10:45:49.240Z,101679.52
2022-10-17T10:48:34.282Z,101681.06
2022-10-17T10:49:47.652Z,101682.41
2022-10-17T10:51:05.909Z,101672.35
2022-10-17T10:56:59.983Z,101671.89
2022-10-17T11:00:17.136Z,101676.91
2022-10-17T11:03:22.955Z,101685.15
2022-10-17T11:07:29.743Z,101677.31
2022-10-17T11:10:17.501Z,101665.50
2022-10-17T11:13:08.415Z,101652.65
2022-10-17T11:15:55.422Z,101648.88
2022-10-17T11:20:10.950Z,101650.63
2022-10-17T11:22:47.625Z,101649.94
2022-10-17T11:25:34.471Z,101635.65
2022-10-17T11:28:17.492Z,101626.95
2022-10-17T11:30:51.752Z,101629.66
2022-10-17T11:33:31.706Z,101616.70
2022-10-17T11:34:51.000Z,101624.52
2022-10-17T11:36:04.654Z,101607.41
2022-10-17T11:38:42.425Z,101605.29
2022-10-17T11:41:36.217Z,101604.91
2022-10-17T11:44:37.656Z,101603.63
2022-10-17T11:47:30.228Z,101606.72
2022-10-17T11:52:11.107Z,101602.00
2022-10-17T11:54:44.646Z,101601.99
2022-10-17T11:57:35.438Z,101586.42
2022-10-17T12:00:39.192Z,101583.40
2022-10-17T12:05:05.206Z,101585.64
2022-10-17T12:08:17.705Z,101575.87
2022-10-17T12:11:10.969Z,101580.53
2022-10-17T12:15:46.536Z,101583.08
2022-10-17T12:17:01.748Z,101583.61
2022-10-17T12:19:35.342Z,101593.53
2022-10-17T12:22:22.389Z,101598.73
2022-10-17T12:24:59.628Z,101596.02
2022-10-17T12:26:10.168Z,101599.34
2022-10-17T12:28:57.092Z,101586.83
2022-10-17T12:31:34.054Z,101584.12
2022-10-17T12:34:17.048Z,101580.34
2022-10-17T12:35:28.677Z,101574.67
2022-10-17T12:38:03.301Z,101572.86
2022-10-17T12:40:39.696Z,101567.44
2022-10-17T12:43:20.152Z,101562.34
2022-10-17T12:45:52.193Z,101581.66
2022-10-17T12:47:11.277Z,101586.72
2022-10-17T12:50:00.748Z,101575.06
2022-10-17T12:52:34.984Z,101567.05
2022-10-17T12:55:26.138Z,101577.88
2022-10-17T12:58:02.958Z,101579.06
2022-10-17T13:01:18.767Z,101573.53
2022-10-17T13:03:39.038Z,101567.23
2022-10-17T13:06:07.283Z,101572.97
2022-10-17T13:07:20.200Z,101573.50
2022-10-17T13:09:50.698Z,101570.83
2022-10-17T13:11:01.770Z,101575.03
2022-10-17T13:13:38.583Z,101561.41
2022-10-17T13:16:08.088Z,101566.72
2022-10-17T13:18:42.699Z,101569.44
2022-10-17T13:22:30.515Z,101569.64
2022-10-17T13:23:40.962Z,101566.80
2022-10-17T13:26:15.019Z,101564.12
2022-10-17T13:29:04.184Z,101567.05
2022-10-17T13:31:44.413Z,101571.28
2022-10-17T13:34:21.467Z,101565.86
2022-10-17T13:38:12.579Z,101567.47
2022-10-17T13:40:50.036Z,101566.50
2022-10-17T13:41:57.248Z,101564.52
2022-10-17T13:43:15.472Z,101561.63
2022-10-17T13:44:27.568Z,101569.94
2022-10-17T13:45:38.051Z,101560.73
2022-10-17T13:48:11.296Z,101561.66
2022-10-17T13:50:51.266Z,101550.70
2022-10-17T13:54:55.997Z,101548.21
2022-10-17T13:57:30.185Z,101551.03
2022-10-17T14:00:02.967Z,101553.73
2022-10-17T14:01:15.132Z,101553.39
2022-10-17T14:03:48.623Z,101546.36
2022-10-17T14:06:27.822Z,101557.20
2022-10-17T14:08:09.901Z,101554.25
2022-10-17T14:10:29.272Z,101552.66
2022-10-17T14:13:00.662Z,101549.06
2022-10-17T14:15:46.789Z,101548.61
2022-10-17T14:16:57.947Z,101553.04
2022-10-17T14:18:09.412Z,101543.17
2022-10-17T14:23:41.102Z,101543.84
2022-10-17T14:26:20.044Z,101547.62
2022-10-17T14:27:37.829Z,101544.95
2022-10-17T14:31:35.651Z,101541.07
2022-10-17T14:32:45.964Z,101547.41
2022-10-17T14:35:37.325Z,101550.19
2022-10-17T14:36:34.681Z,101552.08
2022-10-17T14:39:04.281Z,101541.60
2022-10-17T14:40:23.659Z,101547.94
2022-10-17T14:41:42.728Z,101550.08
2022-10-17T14:42:51.478Z,101544.66
2022-10-17T14:45:26.623Z,101543.28
2022-10-17T14:49:23.241Z,101552.67
2022-10-17T14:50:32.686Z,101560.50
2022-10-17T14:52:07.500Z,101559.65
2022-10-17T14:53:20.560Z,101558.86
2022-10-17T14:54:29.708Z,101554.34
2022-10-17T14:55:40.753Z,101558.97
2022-10-17T14:56:52.781Z,101552.70
2022-10-17T14:58:03.194Z,101562.56
2022-10-17T15:00:31.886Z,101556.84
2022-10-17T15:01:45.367Z,101560.44
2022-10-17T15:02:56.429Z,101558.12
2022-10-17T15:13:45.440Z,101570.41
2022-10-17T15:17:34.029Z,101554.55
2022-10-17T15:19:58.884Z,101558.42
2022-10-17T15:21:26.186Z,101569.77
2022-10-17T15:22:27.094Z,101566.95
2022-10-17T15:23:36.038Z,101560.55
2022-10-17T15:24:45.998Z,101572.27
2022-10-17T15:28:35.493Z,101564.63
2022-10-17T15:31:05.210Z,101569.45
2022-10-17T15:32:14.696Z,101579.31
2022-10-17T15:34:38.583Z,101577.47
2022-10-17T15:37:05.048Z,101579.22
2022-10-17T15:39:33.381Z,101578.16
2022-10-17T15:42:16.598Z,101578.16
2022-10-17T15:44:45.187Z,101572.16
2022-10-17T15:47:12.701Z,101580.86
2022-10-17T15:49:41.427Z,101587.83
2022-10-17T15:52:08.518Z,101583.78
2022-10-17T15:54:32.631Z,101577.58
2022-10-17T15:56:58.458Z,101578.44
2022-10-17T16:00:51.987Z,101583.48
2022-10-17T16:03:35.940Z,101584.05
2022-10-17T16:04:45.280Z,101585.77
2022-10-17T16:07:10.213Z,101584.80
2022-10-17T16:09:38.874Z,101586.91
2022-10-17T16:12:06.228Z,101584.30
2022-10-17T16:14:34.036Z,101579.59
2022-10-17T16:15:43.204Z,101583.70
2022-10-17T16:16:53.590Z,101583.64
2022-10-17T16:18:05.909Z,101584.59
2022-10-17T16:19:13.699Z,101575.80
2022-10-17T16:20:24.379Z,101582.34
2022-10-17T16:21:36.875Z,101579.94
2022-10-17T16:22:46.785Z,101579.84
2022-10-17T16:23:56.379Z,101582.80
2022-10-17T16:25:11.103Z,101572.53
2022-10-17T16:26:21.312Z,101575.14
2022-10-17T16:28:46.358Z,101564.14
2022-10-17T16:29:55.244Z,101577.34
2022-10-17T16:32:22.104Z,101565.03
2022-10-17T16:34:47.114Z,101565.13
2022-10-17T16:37:10.710Z,101571.03
2022-10-17T16:38:20.052Z,101568.28
2022-10-17T16:40:44.973Z,101571.54
2022-10-17T16:43:15.366Z,101572.15
2022-10-17T16:44:23.993Z,101578.03
2022-10-17T16:45:32.935Z,101582.83
2022-10-17T16:46:42.082Z,101575.52
2022-10-17T16:47:53.734Z,101571.77
2022-10-17T16:49:07.426Z,101573.17
2022-10-17T16:51:34.277Z,101576.48
2022-10-17T16:52:43.295Z,101579.27
2022-10-17T16:55:11.792Z,101568.49
2022-10-17T16:57:40.936Z,101564.77
2022-10-17T17:00:09.751Z,101559.63
2022-10-17T17:02:38.045Z,101561.44
2022-10-17T17:03:48.728Z,101562.78
2022-10-17T17:06:16.207Z,101556.03
2022-10-17T17:08:45.137Z,101557.98
2022-10-17T17:11:12.626Z,101555.17
2022-10-17T17:12:21.792Z,101558.62
2022-10-17T17:13:31.515Z,101559.41
2022-10-17T17:17:30.610Z,101561.53
2022-10-17T17:19:51.400Z,101554.32
2022-10-17T17:22:17.037Z,101548.60
2022-10-17T17:24:40.745Z,101553.41
2022-10-17T17:27:08.802Z,101561.70
2022-10-17T17:29:33.056Z,101562.37
2022-10-17T17:31:58.985Z,101565.89
2022-10-17T17:34:24.238Z,101564.23
2022-10-17T17:36:49.541Z,101569.00
2022-10-17T17:39:15.363Z,101569.92
2022-10-17T17:41:40.556Z,101571.83
2022-10-17T17:44:11.192Z,101560.58
2022-10-17T17:46:34.425Z,101564.19
2022-10-17T17:48:59.143Z,101561.72
2022-10-17T17:51:29.447Z,101546.13
2022-10-17T17:53:57.895Z,101559.02
2022-10-17T17:56:25.612Z,101550.64
2022-10-17T17:58:55.581Z,101543.96
2022-10-17T18:01:23.209Z,101563.58
2022-10-17T18:02:31.941Z,101567.70
2022-10-17T18:06:22.874Z,101554.00
2022-10-17T18:08:53.870Z,101550.22
2022-10-17T18:11:22.082Z,101548.31
2022-10-17T18:13:59.047Z,101560.55
2022-10-17T18:16:28.886Z,101551.73
2022-10-17T18:18:55.849Z,101563.77
2022-10-17T18:21:22.808Z,101559.22
2022-10-17T18:23:53.222Z,101559.31
2022-10-17T18:26:17.835Z,101558.80
2022-10-17T18:28:42.998Z,101563.61
2022-10-17T18:31:26.102Z,101559.16
2022-10-17T18:33:57.618Z,101559.78
2022-10-17T18:36:25.787Z,101563.95
2022-10-17T18:38:50.283Z,101562.30
2022-10-17T18:41:17.326Z,101562.57
2022-10-17T18:43:44.023Z,101565.79
2022-10-17T18:47:26.549Z,101563.19
2022-10-17T18:49:50.177Z,101570.33
2022-10-17T18:52:21.968Z,101564.22
2022-10-17T18:54:55.731Z,101561.52
2022-10-17T18:57:23.836Z,101555.42
2022-10-17T18:59:46.174Z,101559.25
2022-10-17T19:02:12.629Z,101557.52
2022-10-17T19:04:36.878Z,101569.95
2022-10-17T19:07:02.793Z,101564.55
2022-10-17T19:09:28.889Z,101558.83
2022-10-17T19:11:52.438Z,101563.61
2022-10-17T19:13:02.405Z,101561.45
2022-10-17T19:16:59.849Z,101564.20
2022-10-17T19:19:26.573Z,101565.42
2022-10-17T19:21:52.402Z,101564.93
2022-10-17T19:24:19.860Z,101556.75
2022-10-17T19:30:19.500Z,101564.57
2022-10-17T19:32:49.234Z,101559.17
2022-10-17T19:35:15.033Z,101563.77
2022-10-17T19:37:43.158Z,101560.21
2022-10-17T19:38:56.410Z,101564.22
2022-10-17T19:41:23.045Z,101561.69
2022-10-17T19:43:51.014Z,101559.94
2022-10-17T19:46:18.972Z,101572.48
2022-10-17T19:48:45.514Z,101561.78
2022-10-17T19:49:54.700Z,101572.41
2022-10-17T19:52:21.343Z,101562.55
2022-10-17T19:53:30.055Z,101567.41
2022-10-17T19:54:40.499Z,101574.66
2022-10-17T19:57:08.061Z,101564.00
2022-10-17T19:59:29.920Z,101566.47
2022-10-17T20:00:38.976Z,101574.94
2022-10-17T20:01:50.388Z,101565.80
2022-10-17T20:03:01.472Z,101568.49
2022-10-17T20:05:28.273Z,101573.90
2022-10-17T20:06:39.592Z,101572.50
2022-10-17T20:09:06.278Z,101571.47
2022-10-17T20:10:18.865Z,101569.52
2022-10-17T20:12:45.399Z,101563.55
2022-10-17T20:13:56.440Z,101570.73
2022-10-17T20:15:06.203Z,101567.78
2022-10-17T20:17:35.557Z,101563.47
2022-10-17T20:20:02.472Z,101564.50
2022-10-17T20:22:32.680Z,101568.77
2022-10-17T20:24:58.108Z,101563.29
2022-10-17T20:27:27.673Z,101565.81
2022-10-17T20:28:36.429Z,101564.77
2022-10-17T20:31:01.136Z,101557.36
2022-10-17T20:33:31.756Z,101563.09
2022-10-17T20:35:53.297Z,101558.74
2022-10-17T20:38:17.874Z,101550.66
2022-10-17T20:40:42.455Z,101550.91
2022-10-17T20:43:10.459Z,101554.55
2022-10-17T20:45:50.983Z,101560.27
2022-10-17T20:48:07.061Z,101549.94
2022-10-17T20:50:37.729Z,101554.47
2022-10-17T20:53:31.503Z,101559.14
2022-10-17T20:55:31.015Z,101556.22
2022-10-17T20:57:57.180Z,101564.05
2022-10-17T21:00:25.407Z,101563.33
2022-10-17T21:02:52.561Z,101556.22
2022-10-17T21:05:17.086Z,101554.06
2022-10-17T21:07:41.194Z,101550.22
2022-10-17T21:10:34.302Z,101550.84
2022-10-17T21:12:54.387Z,101552.77
2022-10-17T21:14:05.442Z,101559.05
2022-10-17T21:15:14.254Z,101558.91
2022-10-17T21:17:39.924Z,101555.47
2022-10-17T21:20:05.039Z,101558.56
2022-10-17T21:21:20.031Z,101560.63
2022-10-17T21:22:28.980Z,101566.38
2022-10-17T21:24:55.161Z,101563.13
2022-10-17T21:26:06.459Z,101570.08
2022-10-17T21:27:17.750Z,101561.82
2022-10-17T21:28:28.419Z,101561.27
2022-10-17T21:30:54.162Z,101551.03
2022-10-17T21:33:19.989Z,101547.70
2022-10-17T21:35:43.835Z,101553.00
2022-10-17T21:36:53.684Z,101553.43
2022-10-17T21:39:17.783Z,101551.89
2022-10-17T21:41:43.965Z,101550.14
2022-10-17T21:42:52.739Z,101556.13
2022-10-17T21:44:05.023Z,101556.61
2022-10-17T21:46:41.707Z,101549.16
2022-10-17T21:48:11.683Z,101548.61
2022-10-17T21:49:02.068Z,101547.58
2022-10-17T21:50:10.723Z,101552.97
2022-10-17T21:51:23.779Z,101545.73
2022-10-17T21:53:48.790Z,101549.28
2022-10-17T21:56:17.439Z,101544.15
2022-10-17T21:57:27.106Z,101549.47
2022-10-17T21:58:36.899Z,101550.49
2022-10-17T22:01:08.961Z,101535.22
2022-10-17T22:03:36.237Z,101536.25
2022-10-17T22:04:45.453Z,101548.05
2022-10-17T22:06:06.829Z,101543.00
2022-10-17T22:07:09.200Z,101545.70
2022-10-17T22:08:17.929Z,101540.36
2022-10-17T22:09:29.086Z,101547.02
2022-10-17T22:11:56.451Z,101532.44
2022-10-17T22:13:06.225Z,101543.64
2022-10-17T22:14:19.784Z,101541.42
2022-10-17T22:15:29.356Z,101544.97
2022-10-17T22:17:56.819Z,101540.44
2022-10-17T22:19:07.813Z,101545.44
2022-10-17T22:21:36.027Z,101540.19
2022-10-17T22:22:52.656Z,101540.05
2022-10-17T22:24:04.596Z,101546.38
2022-10-17T22:25:13.399Z,101539.33
2022-10-17T22:26:22.934Z,101544.33
2022-10-17T22:28:49.314Z,101532.19
2022-10-17T22:31:14.000Z,101519.75
2022-10-17T22:33:40.287Z,101525.05
2022-10-17T22:36:05.811Z,101529.11
2022-10-17T22:38:29.781Z,101529.66
2022-10-17T22:40:55.937Z,101530.38
2022-10-17T22:43:20.572Z,101529.09
2022-10-17T22:45:53.816Z,101528.58
2022-10-17T22:48:20.901Z,101527.55
2022-10-17T22:50:46.412Z,101525.57
2022-10-17T22:53:11.751Z,101526.77
2022-10-17T22:55:36.680Z,101518.60
2022-10-17T22:58:01.891Z,101516.45
2022-10-17T23:02:55.272Z,101521.56
2022-10-17T23:05:20.462Z,101524.02
2022-10-17T23:07:44.704Z,101526.71
2022-10-17T23:10:10.762Z,101527.45
2022-10-17T23:12:35.138Z,101532.36
2022-10-17T23:14:59.721Z,101531.34
2022-10-17T23:16:15.374Z,101536.41
2022-10-17T23:18:40.802Z,101533.47
2022-10-17T23:20:00.275Z,101540.22
2022-10-17T23:22:25.184Z,101540.61
2022-10-17T23:25:15.372Z,101539.33
2022-10-17T23:27:58.524Z,101536.42
2022-10-17T23:30:23.807Z,101540.05
2022-10-17T23:32:47.531Z,101545.14
2022-10-17T23:35:11.969Z,101539.44
2022-10-17T23:37:40.099Z,101547.73
2022-10-17T23:40:06.094Z,101547.81
2022-10-17T23:42:30.797Z,101542.03
2022-10-17T23:44:56.951Z,101534.12
2022-10-17T23:47:23.828Z,101535.63
2022-10-17T23:48:33.852Z,101539.50
2022-10-17T23:49:42.568Z,101541.09
2022-10-17T23:52:07.750Z,101531.83
2022-10-17T23:53:16.733Z,101533.26
2022-10-17T23:55:41.459Z,101517.80
2022-10-17T23:58:06.704Z,101515.92
2022-10-17T23:59:16.285Z,101523.23
